Time;durP1;ratioP1;P1;durP2;ratioP2;P2;SDS_P1;SDS_P2;PMS_P1;PMS_P2;Temp;Humidity;BMP_temperature;BMP_pressure;BME280_temperature;BME280_humidity;BME280_pressure;Samples;Min_cycle;Max_cycle;Signal;HPM_P1;HPM_P2
2022/01/18 00:00:49;;;;;;;20.10;9.35;;;;;;;;;;4749543;30;20491;-74
2022/01/18 00:03:15;;;;;;;36.33;11.73;;;;;;;;;;4748692;30;20084;-76
2022/01/18 00:05:47;;;;;;;26.40;10.10;;;;;;;;;;4743214;30;20082;-76
2022/01/18 00:08:14;;;;;;;30.17;10.57;;;;;;;;;;4746214;30;20119;-76
2022/01/18 00:10:39;;;;;;;22.30;8.68;;;;;;;;;;4745136;30;20044;-76
2022/01/18 00:16:08;;;;;;;33.17;9.43;;;;;;;;;;4739468;30;20049;-73
2022/01/18 00:18:29;;;;;;;22.58;10.30;;;;;;;;;;4734688;30;20060;-73
2022/01/18 00:23:32;;;;;;;;;;;;;;;;;;4750089;30;20052;-73
2022/01/18 00:25:58;;;;;;;22.73;9.95;;;;;;;;;;4745548;30;19922;-73
2022/01/18 00:28:26;;;;;;;21.97;10.13;;;;;;;;;;4748389;30;20052;-74
2022/01/18 00:36:03;;;;;;;24.58;11.02;;;;;;;;;;4749434;30;20075;-76
2022/01/18 00:38:32;;;;;;;26.50;10.30;;;;;;;;;;4747879;30;20154;-76
2022/01/18 00:40:58;;;;;;;20.27;10.68;;;;;;;;;;4746452;30;20056;-76
2022/01/18 00:43:23;;;;;;;23.67;10.20;;;;;;;;;;4733476;30;20040;-76
2022/01/18 00:45:49;;;;;;;27.10;11.37;;;;;;;;;;4743506;30;20040;-76
2022/01/18 00:48:14;;;;;;;33.23;11.27;;;;;;;;;;4749305;30;20038;-76
2022/01/18 00:50:40;;;;;;;34.03;11.53;;;;;;;;;;4741376;30;20048;-76
2022/01/18 00:53:10;;;;;;;28.20;11.53;;;;;;;;;;4732974;30;20047;-73
2022/01/18 00:55:47;;;;;;;25.58;10.88;;;;;;;;;;4733410;30;20052;-72
2022/01/18 00:58:13;;;;;;;19.13;10.55;;;;;;;;;;4729163;30;20400;-73
2022/01/18 01:00:38;;;;;;;27.45;11.55;;;;;;;;;;4740373;30;20036;-73
2022/01/18 01:03:04;;;;;;;25.47;10.77;;;;;;;;;;4745346;30;20052;-73
2022/01/18 01:05:29;;;;;;;28.00;10.83;;;;;;;;;;4742238;30;20475;-72
2022/01/18 01:07:55;;;;;;;29.40;10.50;;;;;;;;;;4746470;30;20482;-73
2022/01/18 01:10:20;;;;;;;24.07;10.80;;;;;;;;;;4746511;30;20032;-72
2022/01/18 01:12:46;;;;;;;22.00;10.43;;;;;;;;;;4753678;30;20497;-72
2022/01/18 01:15:14;;;;;;;27.67;11.67;;;;;;;;;;4747806;30;20060;-72
2022/01/18 01:41:51;;;;;;;23.42;10.05;;;;;;;;;;4734005;30;20049;-76
2022/01/18 01:44:27;;;;;;;25.88;10.75;;;;;;;;;;4750293;30;20041;-73
2022/01/18 01:46:53;;;;;;;20.92;10.95;;;;;;;;;;4744304;30;20036;-73
2022/01/18 01:49:20;;;;;;;25.57;10.60;;;;;;;;;;4747692;30;20095;-72
2022/01/18 01:51:47;;;;;;;28.13;11.85;;;;;;;;;;4735602;30;20040;-73
2022/01/18 01:54:14;;;;;;;28.65;12.40;;;;;;;;;;4750765;30;20443;-73
2022/01/18 01:56:40;;;;;;;24.20;9.68;;;;;;;;;;4746797;30;20044;-73
2022/01/18 01:59:06;;;;;;;28.40;11.43;;;;;;;;;;4747164;30;20528;-72
2022/01/18 02:01:48;;;;;;;27.38;11.43;;;;;;;;;;4744921;30;20102;-76
2022/01/18 02:04:15;;;;;;;23.52;11.10;;;;;;;;;;4740671;30;20051;-75
2022/01/18 02:06:40;;;;;;;26.27;11.30;;;;;;;;;;4745486;30;20516;-76
2022/01/18 02:09:06;;;;;;;27.80;12.70;;;;;;;;;;4739774;30;20048;-75
2022/01/18 02:11:31;;;;;;;26.37;11.43;;;;;;;;;;4743698;30;20547;-76
2022/01/18 02:13:57;;;;;;;27.07;10.83;;;;;;;;;;4742848;30;20356;-75
2022/01/18 02:22:10;;;;;;;29.30;11.90;;;;;;;;;;4689438;30;20108;-74
2022/01/18 02:24:36;;;;;;;25.10;9.33;;;;;;;;;;4687409;30;20042;-75
2022/01/18 02:27:01;;;;;;;22.37;9.90;;;;;;;;;;4716866;30;20067;-74
2022/01/18 02:29:27;;;;;;;20.87;10.07;;;;;;;;;;4750446;30;20047;-74
2022/01/18 02:31:54;;;;;;;16.80;8.93;;;;;;;;;;4743478;30;20048;-74
2022/01/18 02:34:20;;;;;;;19.83;9.35;;;;;;;;;;4742705;30;20052;-74
2022/01/18 02:36:45;;;;;;;21.23;9.27;;;;;;;;;;4736479;30;20064;-73
2022/01/18 02:39:12;;;;;;;25.07;9.17;;;;;;;;;;4739581;30;20079;-73
2022/01/18 02:41:38;;;;;;;25.48;11.57;;;;;;;;;;4735307;30;20048;-73
2022/01/18 02:44:13;;;;;;;23.25;9.65;;;;;;;;;;4746745;30;20044;-74
2022/01/18 02:46:39;;;;;;;22.80;10.48;;;;;;;;;;4736860;30;20048;-74
2022/01/18 02:49:05;;;;;;;24.63;9.77;;;;;;;;;;4745791;30;20047;-73
2022/01/18 02:51:31;;;;;;;29.63;10.57;;;;;;;;;;4746888;30;20032;-73
2022/01/18 02:54:11;;;;;;;25.60;10.47;;;;;;;;;;4744929;30;20048;-73
2022/01/18 02:56:43;;;;;;;23.25;9.70;;;;;;;;;;4734527;30;20278;-73
2022/01/18 02:59:29;;;;;;;22.80;8.98;;;;;;;;;;4737295;30;20395;-74
2022/01/18 03:04:42;;;;;;;27.83;10.68;;;;;;;;;;4740398;30;20086;-73
2022/01/18 03:07:08;;;;;;;27.10;9.57;;;;;;;;;;4748696;30;20386;-74
2022/01/18 03:09:34;;;;;;;32.30;10.02;;;;;;;;;;4737821;30;20048;-74
2022/01/18 03:12:00;;;;;;;32.73;8.90;;;;;;;;;;4745893;30;20044;-74
2022/01/18 03:14:25;;;;;;;28.50;9.50;;;;;;;;;;4748190;30;20101;-74
2022/01/18 03:16:51;;;;;;;31.70;11.53;;;;;;;;;;4744319;30;20406;-74
2022/01/18 03:19:16;;;;;;;25.40;9.97;;;;;;;;;;4752755;30;20036;-74
2022/01/18 03:21:42;;;;;;;26.17;11.23;;;;;;;;;;4746782;30;20459;-74
2022/01/18 03:24:32;;;;;;;35.30;10.87;;;;;;;;;;4741453;30;20045;-74
2022/01/18 03:29:42;;;;;;;30.60;11.38;;;;;;;;;;4739404;30;20072;-74
2022/01/18 03:32:08;;;;;;;45.30;12.37;;;;;;;;;;4741197;30;20036;-74
2022/01/18 03:34:34;;;;;;;47.07;12.97;;;;;;;;;;4735099;30;20048;-74
2022/01/18 03:36:59;;;;;;;33.67;12.10;;;;;;;;;;4750522;30;20043;-74
2022/01/18 03:39:25;;;;;;;41.57;11.17;;;;;;;;;;4746055;30;20134;-73
2022/01/18 03:41:55;;;;;;;38.33;10.97;;;;;;;;;;4745191;30;20044;-74
2022/01/18 03:44:24;;;;;;;30.90;10.63;;;;;;;;;;4743917;30;20111;-74
2022/01/18 03:46:50;;;;;;;42.60;11.95;;;;;;;;;;4743962;30;20037;-74
2022/01/18 03:49:16;;;;;;;34.20;10.20;;;;;;;;;;4733842;30;20182;-74
2022/01/18 03:51:41;;;;;;;33.23;11.40;;;;;;;;;;4733551;30;20406;-74
2022/01/18 03:54:07;;;;;;;38.97;11.13;;;;;;;;;;4746610;30;20111;-74
2022/01/18 03:56:32;;;;;;;31.73;10.27;;;;;;;;;;4737608;30;20041;-73
2022/01/18 03:58:57;;;;;;;45.40;12.07;;;;;;;;;;4733736;30;20044;-74
2022/01/18 04:01:23;;;;;;;34.40;10.20;;;;;;;;;;4741791;30;20043;-74
2022/01/18 04:03:48;;;;;;;25.43;9.67;;;;;;;;;;4749929;30;20052;-74
2022/01/18 04:06:14;;;;;;;36.03;10.83;;;;;;;;;;4742136;30;20116;-74
2022/01/18 04:08:39;;;;;;;42.80;10.77;;;;;;;;;;4746923;30;20040;-74
2022/01/18 04:11:05;;;;;;;39.30;10.10;;;;;;;;;;4741673;30;20048;-74
2022/01/18 04:13:30;;;;;;;36.57;11.07;;;;;;;;;;4748355;30;20039;-74
2022/01/18 04:15:56;;;;;;;44.00;11.17;;;;;;;;;;4744487;30;20044;-74
2022/01/18 04:18:45;;;;;;;40.37;11.07;;;;;;;;;;4750517;30;20501;-74
2022/01/18 04:29:09;;;;;;;43.05;11.50;;;;;;;;;;4737861;30;20078;-74
2022/01/18 04:31:35;;;;;;;38.70;9.73;;;;;;;;;;4740498;30;20067;-73
2022/01/18 04:34:01;;;;;;;44.37;11.80;;;;;;;;;;4741532;30;20099;-74
2022/01/18 04:36:27;;;;;;;33.80;9.60;;;;;;;;;;4743692;30;20048;-74
2022/01/18 04:38:53;;;;;;;;;;;;;;;;;;4739512;30;20042;-74
2022/01/18 04:41:25;;;;;;;47.03;10.75;;;;;;;;;;4741749;30;19914;-73
2022/01/18 04:49:12;;;;;;;39.20;10.95;;;;;;;;;;4742925;30;20078;-74
2022/01/18 04:51:38;;;;;;;41.95;10.77;;;;;;;;;;4739538;30;20036;-74
2022/01/18 04:54:06;;;;;;;44.00;10.88;;;;;;;;;;4745019;30;20056;-74
2022/01/18 04:59:04;;;;;;;33.33;11.40;;;;;;;;;;4741619;30;20112;-74
2022/01/18 05:01:30;;;;;;;33.28;10.43;;;;;;;;;;4746861;30;20067;-74
2022/01/18 05:03:56;;;;;;;35.97;11.53;;;;;;;;;;4747850;30;20393;-74
2022/01/18 05:06:21;;;;;;;46.50;12.90;;;;;;;;;;4753630;30;20042;-74
2022/01/18 05:08:47;;;;;;;33.13;11.10;;;;;;;;;;4742038;30;20049;-74
2022/01/18 05:11:16;;;;;;;40.37;10.40;;;;;;;;;;4749260;30;20087;-74
2022/01/18 05:21:30;;;;;;;41.45;11.50;;;;;;;;;;4752369;30;20067;-74
2022/01/18 05:23:56;;;;;;;40.40;11.63;;;;;;;;;;4750336;30;20056;-74
2022/01/18 05:26:22;;;;;;;37.47;11.43;;;;;;;;;;4743983;30;20304;-74
2022/01/18 05:28:47;;;;;;;45.97;12.05;;;;;;;;;;4735712;30;20051;-74
2022/01/18 05:31:13;;;;;;;45.57;13.17;;;;;;;;;;4741392;30;20036;-76
2022/01/18 05:33:41;;;;;;;43.77;11.20;;;;;;;;;;4747092;30;20036;-77
2022/01/18 05:36:07;;;;;;;44.47;10.80;;;;;;;;;;4722106;30;20422;-76
2022/01/18 05:38:33;;;;;;;41.97;11.38;;;;;;;;;;4744096;30;20078;-76
2022/01/18 05:40:59;;;;;;;47.42;11.75;;;;;;;;;;4736840;30;20044;-77
2022/01/18 05:43:25;;;;;;;41.05;11.50;;;;;;;;;;4743859;30;20068;-73
2022/01/18 05:45:50;;;;;;;40.10;11.63;;;;;;;;;;4735537;30;20098;-73
2022/01/18 05:48:16;;;;;;;37.57;11.30;;;;;;;;;;4738369;30;20043;-72
2022/01/18 05:50:41;;;;;;;51.17;12.00;;;;;;;;;;4747988;30;20048;-73
2022/01/18 05:53:07;;;;;;;32.50;10.07;;;;;;;;;;4745661;30;20474;-73
2022/01/18 05:55:32;;;;;;;44.80;12.70;;;;;;;;;;4741019;30;20115;-73
2022/01/18 05:57:58;;;;;;;38.00;10.00;;;;;;;;;;4742042;30;20630;-73
2022/01/18 06:00:25;;;;;;;44.00;11.73;;;;;;;;;;4748451;30;20390;-75
2022/01/18 06:08:07;;;;;;;38.45;10.30;;;;;;;;;;4740969;30;20052;-75
2022/01/18 06:10:32;;;;;;;32.93;10.23;;;;;;;;;;4748962;30;20048;-75
2022/01/18 06:13:01;;;;;;;40.37;10.90;;;;;;;;;;4752353;30;20036;-75
2022/01/18 06:15:26;;;;;;;45.00;11.32;;;;;;;;;;4735284;30;20037;-73
2022/01/18 06:17:52;;;;;;;35.33;10.53;;;;;;;;;;4744130;30;20048;-73
2022/01/18 06:20:17;;;;;;;39.17;12.13;;;;;;;;;;4749040;30;20041;-73
2022/01/18 06:22:43;;;;;;;39.30;10.97;;;;;;;;;;4744017;30;20039;-73
2022/01/18 06:25:08;;;;;;;35.87;10.70;;;;;;;;;;4745324;30;20048;-73
2022/01/18 06:27:34;;;;;;;37.53;11.30;;;;;;;;;;4741082;30;20431;-73
2022/01/18 06:29:59;;;;;;;40.07;12.00;;;;;;;;;;4738919;30;20036;-73
2022/01/18 06:32:25;;;;;;;42.80;11.83;;;;;;;;;;4738583;30;20048;-73
2022/01/18 06:34:51;;;;;;;50.93;10.00;;;;;;;;;;4739152;30;20025;-73
2022/01/18 06:37:17;;;;;;;40.38;11.70;;;;;;;;;;4737681;30;20040;-73
2022/01/18 06:39:43;;;;;;;39.10;10.77;;;;;;;;;;4739508;30;20401;-73
2022/01/18 06:42:10;;;;;;;42.40;10.47;;;;;;;;;;4743750;30;20276;-73
2022/01/18 06:44:36;;;;;;;33.35;10.52;;;;;;;;;;4729850;30;20371;-73
2022/01/18 06:47:02;;;;;;;34.88;10.73;;;;;;;;;;4734809;30;20071;-73
2022/01/18 06:49:27;;;;;;;45.80;13.00;;;;;;;;;;4732056;30;20039;-73
2022/01/18 06:51:52;;;;;;;42.33;13.10;;;;;;;;;;4734475;30;20119;-73
2022/01/18 06:54:18;;;;;;;35.83;11.20;;;;;;;;;;4738081;30;20052;-73
2022/01/18 06:56:49;;;;;;;35.33;11.10;;;;;;;;;;4734492;30;20028;-73
2022/01/18 06:59:15;;;;;;;29.67;10.85;;;;;;;;;;4734951;30;20449;-73
2022/01/18 07:01:41;;;;;;;40.08;10.30;;;;;;;;;;4731305;30;20455;-73
2022/01/18 07:04:06;;;;;;;38.58;10.35;;;;;;;;;;4740657;30;20514;-73
2022/01/18 07:06:33;;;;;;;31.00;9.67;;;;;;;;;;4734639;30;20055;-73
2022/01/18 07:08:59;;;;;;;42.53;10.95;;;;;;;;;;4734608;30;20076;-73
2022/01/18 07:11:25;;;;;;;37.63;9.98;;;;;;;;;;4750385;30;20501;-73
2022/01/18 07:13:51;;;;;;;36.73;10.97;;;;;;;;;;4740136;30;20060;-73
2022/01/18 07:16:16;;;;;;;44.10;11.20;;;;;;;;;;4749557;30;20043;-73
2022/01/18 07:18:42;;;;;;;25.03;10.30;;;;;;;;;;4747335;30;20393;-73
2022/01/18 07:21:09;;;;;;;33.75;9.95;;;;;;;;;;4742543;30;20474;-73
2022/01/18 07:23:35;;;;;;;31.63;9.40;;;;;;;;;;4736109;30;20079;-73
2022/01/18 07:26:01;;;;;;;29.20;10.68;;;;;;;;;;4743760;30;20098;-73
2022/01/18 07:28:26;;;;;;;35.57;10.07;;;;;;;;;;4741348;30;20040;-73
2022/01/18 07:30:52;;;;;;;30.60;10.60;;;;;;;;;;4739864;30;20040;-73
2022/01/18 07:33:18;;;;;;;43.17;10.50;;;;;;;;;;4742275;30;20489;-73
2022/01/18 07:35:43;;;;;;;33.42;9.50;;;;;;;;;;4745691;30;20036;-73
2022/01/18 07:38:14;;;;;;;25.70;9.43;;;;;;;;;;4748462;30;20494;-73
2022/01/18 07:40:41;;;;;;;29.52;10.00;;;;;;;;;;4745461;30;20119;-73
2022/01/18 07:43:08;;;;;;;34.42;11.77;;;;;;;;;;4739133;30;20056;-73
2022/01/18 07:45:33;;;;;;;30.23;9.45;;;;;;;;;;4735787;30;20048;-73
2022/01/18 07:47:58;;;;;;;27.20;9.47;;;;;;;;;;4739651;30;20047;-73
2022/01/18 07:50:25;;;;;;;30.73;9.70;;;;;;;;;;4736860;30;20463;-73
2022/01/18 07:52:50;;;;;;;29.15;10.60;;;;;;;;;;4747139;30;20051;-73
2022/01/18 07:55:16;;;;;;;38.53;12.43;;;;;;;;;;4752113;30;20048;-73
2022/01/18 07:57:43;;;;;;;43.33;10.97;;;;;;;;;;4737712;30;20054;-73
2022/01/18 08:00:13;;;;;;;41.35;12.40;;;;;;;;;;4743529;30;20059;-73
2022/01/18 08:02:39;;;;;;;45.70;13.13;;;;;;;;;;4744627;30;20082;-76
2022/01/18 08:05:06;;;;;;;63.30;16.90;;;;;;;;;;4743368;30;20067;-76
2022/01/18 08:07:31;;;;;;;;;;;;;;;;;;4740628;30;20693;-76
2022/01/18 08:09:56;;;;;;;54.25;14.38;;;;;;;;;;4734196;30;20001;-76
2022/01/18 08:12:23;;;;;;;39.90;11.10;;;;;;;;;;4737793;30;20129;-73
2022/01/18 08:14:49;;;;;;;38.72;11.02;;;;;;;;;;4737786;30;20057;-73
2022/01/18 08:17:15;;;;;;;53.00;12.60;;;;;;;;;;4741338;30;20475;-73
2022/01/18 08:19:41;;;;;;;43.13;12.10;;;;;;;;;;4742205;30;20044;-73
2022/01/18 08:22:07;;;;;;;56.33;13.50;;;;;;;;;;4742190;30;20045;-73
2022/01/18 08:24:32;;;;;;;43.22;13.35;;;;;;;;;;4738403;30;20406;-73
2022/01/18 08:26:58;;;;;;;45.37;13.47;;;;;;;;;;4739442;30;20049;-73
2022/01/18 08:29:23;;;;;;;59.43;13.77;;;;;;;;;;4739575;30;20055;-73
2022/01/18 08:31:49;;;;;;;51.67;13.73;;;;;;;;;;4744659;30;20391;-73
2022/01/18 08:34:14;;;;;;;62.20;14.17;;;;;;;;;;4739803;30;20462;-73
2022/01/18 08:36:40;;;;;;;51.97;13.40;;;;;;;;;;4746873;30;20041;-73
2022/01/18 08:39:07;;;;;;;51.08;14.30;;;;;;;;;;4737045;30;20032;-73
2022/01/18 08:41:32;;;;;;;50.10;11.95;;;;;;;;;;4738531;30;20041;-76
2022/01/18 08:43:58;;;;;;;48.33;13.77;;;;;;;;;;4736746;30;20105;-75
2022/01/18 08:46:23;;;;;;;53.00;14.03;;;;;;;;;;4738307;30;20064;-75
2022/01/18 08:48:50;;;;;;;56.23;16.67;;;;;;;;;;4750618;30;20107;-76
2022/01/18 08:51:16;;;;;;;48.78;18.83;;;;;;;;;;4749121;30;20056;-75
2022/01/18 08:53:42;;;;;;;68.73;22.87;;;;;;;;;;4740089;30;20051;-76
2022/01/18 08:56:08;;;;;;;;;;;;;;;;;;4734573;30;20052;-76
2022/01/18 08:58:34;;;;;;;60.08;23.33;;;;;;;;;;4743822;30;19919;-76
2022/01/18 09:01:01;;;;;;;66.13;22.30;;;;;;;;;;4737144;30;20037;-76
2022/01/18 09:03:26;;;;;;;78.22;25.63;;;;;;;;;;4746500;30;20506;-76
2022/01/18 09:05:52;;;;;;;82.17;24.30;;;;;;;;;;4743283;30;20064;-76
2022/01/18 09:08:19;;;;;;;78.13;25.97;;;;;;;;;;4742534;30;20032;-76
2022/01/18 09:10:47;;;;;;;70.10;23.00;;;;;;;;;;4736872;30;20033;-76
2022/01/18 09:13:13;;;;;;;71.30;22.95;;;;;;;;;;4749892;30;20051;-76
2022/01/18 09:15:38;;;;;;;68.75;22.98;;;;;;;;;;4746578;30;20036;-76
2022/01/18 09:18:04;;;;;;;55.63;18.10;;;;;;;;;;4744532;30;20055;-76
2022/01/18 09:20:31;;;;;;;50.67;18.17;;;;;;;;;;4746211;30;20048;-76
2022/01/18 09:22:56;;;;;;;51.75;14.68;;;;;;;;;;4745762;30;20048;-76
2022/01/18 09:25:27;;;;;;;56.53;16.03;;;;;;;;;;4747087;30;20053;-76
2022/01/18 09:27:53;;;;;;;71.82;17.17;;;;;;;;;;4749802;30;20079;-76
2022/01/18 09:30:20;;;;;;;62.15;16.33;;;;;;;;;;4742133;30;20429;-76
2022/01/18 09:32:46;;;;;;;63.85;18.70;;;;;;;;;;4750825;30;20052;-76
2022/01/18 09:35:12;;;;;;;67.20;18.58;;;;;;;;;;4738391;30;20052;-76
2022/01/18 09:37:38;;;;;;;70.93;17.63;;;;;;;;;;4753339;30;20048;-76
2022/01/18 09:40:04;;;;;;;49.87;16.67;;;;;;;;;;4741200;30;20051;-76
2022/01/18 09:42:35;;;;;;;52.33;16.10;;;;;;;;;;4744726;30;20399;-76
2022/01/18 09:45:04;;;;;;;61.83;17.08;;;;;;;;;;4734800;30;20044;-76
2022/01/18 09:47:29;;;;;;;52.20;21.38;;;;;;;;;;4741100;30;20043;-76
2022/01/18 09:49:57;;;;;;;63.07;17.90;;;;;;;;;;4734952;30;20049;-76
2022/01/18 09:52:23;;;;;;;62.47;21.63;;;;;;;;;;4741354;30;20044;-76
2022/01/18 09:54:49;;;;;;;62.83;21.80;;;;;;;;;;4750657;30;20120;-76
2022/01/18 09:57:14;;;;;;;66.87;19.50;;;;;;;;;;4735457;30;20128;-76
2022/01/18 09:59:40;;;;;;;60.80;17.57;;;;;;;;;;4745194;30;20041;-76
2022/01/18 10:02:06;;;;;;;62.87;16.27;;;;;;;;;;4735239;30;20503;-76
2022/01/18 10:04:39;;;;;;;74.13;16.92;;;;;;;;;;4742491;30;20182;-76
2022/01/18 10:07:04;;;;;;;65.10;16.17;;;;;;;;;;4747862;30;20040;-76
2022/01/18 10:09:30;;;;;;;63.47;16.10;;;;;;;;;;4745969;30;20059;-75
2022/01/18 10:12:07;;;;;;;62.87;16.27;;;;;;;;;;4750780;30;20121;-76
2022/01/18 10:14:33;;;;;;;51.03;14.80;;;;;;;;;;4740443;30;20036;-76
2022/01/18 10:16:59;;;;;;;61.20;15.38;;;;;;;;;;4734416;30;20056;-76
2022/01/18 10:19:43;;;;;;;69.87;15.80;;;;;;;;;;4739357;30;20041;-76
2022/01/18 10:22:11;;;;;;;62.33;15.13;;;;;;;;;;4740761;30;20044;-76
2022/01/18 10:24:37;;;;;;;48.13;13.38;;;;;;;;;;4737894;30;20047;-76
2022/01/18 10:27:03;;;;;;;50.20;14.20;;;;;;;;;;4750705;30;20055;-76
2022/01/18 10:29:35;;;;;;;47.25;12.65;;;;;;;;;;4736798;30;20047;-76
2022/01/18 10:32:11;;;;;;;34.28;11.48;;;;;;;;;;4739772;30;20036;-76
2022/01/18 10:37:07;;;;;;;41.80;12.00;;;;;;;;;;4735453;30;20137;-76
2022/01/18 10:39:41;;;;;;;41.08;11.07;;;;;;;;;;4743938;30;20408;-76
2022/01/18 10:42:19;;;;;;;36.10;11.65;;;;;;;;;;4745303;30;20039;-76
2022/01/18 10:44:47;;;;;;;56.35;14.15;;;;;;;;;;4743391;30;20059;-76
2022/01/18 10:47:12;;;;;;;33.33;12.43;;;;;;;;;;4745600;30;20044;-76
2022/01/18 10:49:46;;;;;;;43.43;14.17;;;;;;;;;;4740714;30;20123;-76
2022/01/18 10:52:18;;;;;;;40.53;13.73;;;;;;;;;;4747143;30;20032;-76
2022/01/18 10:54:57;;;;;;;40.50;13.48;;;;;;;;;;4735519;30;20538;-76
2022/01/18 10:57:27;;;;;;;37.97;14.00;;;;;;;;;;4732861;30;20044;-76
2022/01/18 11:00:02;;;;;;;38.35;12.10;;;;;;;;;;4741914;30;20048;-76
2022/01/18 11:02:32;;;;;;;32.33;11.60;;;;;;;;;;4736245;30;20064;-76
2022/01/18 11:04:58;;;;;;;37.97;12.45;;;;;;;;;;4741248;30;20044;-76
2022/01/18 11:07:26;;;;;;;43.97;11.93;;;;;;;;;;4739711;30;20066;-76
2022/01/18 11:09:51;;;;;;;36.10;12.82;;;;;;;;;;4729412;30;20188;-77
2022/01/18 11:12:20;;;;;;;34.17;11.93;;;;;;;;;;4739643;30;20498;-76
2022/01/18 11:14:49;;;;;;;38.00;13.82;;;;;;;;;;4741161;30;20897;-76
2022/01/18 11:17:26;;;;;;;38.78;14.38;;;;;;;;;;4744115;30;20033;-76
2022/01/18 11:19:55;;;;;;;30.83;12.25;;;;;;;;;;4713336;30;20398;-77
2022/01/18 11:22:24;;;;;;;35.28;12.98;;;;;;;;;;4734850;30;20045;-76
2022/01/18 11:24:49;;;;;;;44.65;15.30;;;;;;;;;;4734550;30;20044;-76
2022/01/18 11:27:15;;;;;;;38.63;15.67;;;;;;;;;;4733699;30;20051;-77
2022/01/18 11:29:42;;;;;;;40.70;14.50;;;;;;;;;;4733164;30;20033;-77
2022/01/18 11:32:09;;;;;;;58.15;22.15;;;;;;;;;;4737783;30;20052;-76
2022/01/18 11:34:56;;;;;;;;;;;;;;;;;;4738570;30;20047;-77
2022/01/18 11:37:21;;;;;;;52.72;19.80;;;;;;;;;;4738190;30;19971;-77
2022/01/18 11:39:47;;;;;;;53.30;18.37;;;;;;;;;;4740546;30;20040;-76
2022/01/18 11:42:13;;;;;;;52.13;19.20;;;;;;;;;;4742725;30;20046;-77
2022/01/18 11:44:40;;;;;;;39.00;17.20;;;;;;;;;;4740491;30;20044;-77
2022/01/18 11:47:08;;;;;;;41.58;16.30;;;;;;;;;;4741614;30;20055;-78
2022/01/18 11:49:34;;;;;;;48.22;16.33;;;;;;;;;;4743069;30;20044;-77
2022/01/18 11:52:06;;;;;;;36.92;16.45;;;;;;;;;;4744121;30;20048;-77
2022/01/18 11:57:21;;;;;;;59.92;28.90;;;;;;;;;;4744877;30;20044;-77
2022/01/18 11:59:52;;;;;;;53.95;21.48;;;;;;;;;;4736441;30;20047;-77
2022/01/18 12:02:33;;;;;;;51.85;19.42;;;;;;;;;;4734489;30;20070;-77
2022/01/18 12:05:06;;;;;;;56.90;25.35;;;;;;;;;;4742718;30;20441;-77
2022/01/18 12:07:38;;;;;;;47.63;20.63;;;;;;;;;;4742052;30;20394;-77
2022/01/18 12:10:06;;;;;;;40.80;19.13;;;;;;;;;;4741380;30;20052;-77
2022/01/18 12:12:40;;;;;;;50.58;20.77;;;;;;;;;;4731929;30;20131;-77
2022/01/18 12:15:15;;;;;;;44.15;19.77;;;;;;;;;;4733840;30;20098;-77
2022/01/18 12:17:49;;;;;;;48.30;21.35;;;;;;;;;;4721626;30;20043;-77
2022/01/18 12:20:35;;;;;;;51.15;22.27;;;;;;;;;;4720252;30;20067;-77
2022/01/18 12:23:14;;;;;;;50.20;23.90;;;;;;;;;;4735946;30;20055;-77
2022/01/18 12:25:57;;;;;;;48.80;23.30;;;;;;;;;;4727979;30;20036;-77
2022/01/18 12:34:38;;;;;;;43.63;21.02;;;;;;;;;;4738237;30;20053;-77
2022/01/18 12:37:24;;;;;;;40.95;20.85;;;;;;;;;;4734493;30;20556;-77
2022/01/18 12:39:49;;;;;;;36.13;20.20;;;;;;;;;;4736922;30;20061;-77
2022/01/18 12:44:20;;;;;;;35.70;19.13;;;;;;;;;;4734329;30;20052;-77
2022/01/18 12:45:28;;;;;;;44.22;20.23;;;;;;;;;;4723561;30;20048;-77
2022/01/18 12:48:09;;;;;;;42.20;19.65;;;;;;;;;;4741889;30;20418;-78
2022/01/18 12:50:41;;;;;;;42.95;17.48;;;;;;;;;;4733778;30;20048;-77
2022/01/18 12:53:36;;;;;;;36.10;18.10;;;;;;;;;;4734507;30;20055;-77
2022/01/18 12:56:06;;;;;;;34.47;19.30;;;;;;;;;;4727011;30;20076;-77
2022/01/18 12:58:38;;;;;;;40.08;18.83;;;;;;;;;;4737507;30;20080;-77
2022/01/18 13:01:10;;;;;;;44.30;18.67;;;;;;;;;;4741067;30;20032;-77
2022/01/18 13:03:36;;;;;;;35.75;18.60;;;;;;;;;;4739928;30;20127;-77
2022/01/18 13:06:07;;;;;;;36.17;16.93;;;;;;;;;;4738100;30;20471;-77
2022/01/18 13:08:40;;;;;;;31.05;17.02;;;;;;;;;;4743227;30;20062;-77
2022/01/18 13:11:06;;;;;;;40.58;17.58;;;;;;;;;;4742161;30;20550;-77
2022/01/18 13:13:33;;;;;;;34.60;16.20;;;;;;;;;;4748007;30;20052;-77
2022/01/18 13:26:51;;;;;;;31.30;15.88;;;;;;;;;;4738193;30;20053;-78
2022/01/18 13:29:23;;;;;;;31.48;16.42;;;;;;;;;;4744851;30;20055;-77
2022/01/18 13:32:09;;;;;;;35.10;15.85;;;;;;;;;;4741207;30;20166;-77
2022/01/18 13:34:37;;;;;;;31.42;16.13;;;;;;;;;;4726298;30;20044;-77
2022/01/18 13:37:07;;;;;;;27.38;15.23;;;;;;;;;;4740072;30;20061;-78
2022/01/18 13:39:37;;;;;;;30.98;15.73;;;;;;;;;;4736842;30;20033;-77
2022/01/18 13:42:03;;;;;;;34.83;17.92;;;;;;;;;;4732318;30;20811;-77
2022/01/18 13:44:30;;;;;;;35.78;18.08;;;;;;;;;;4732813;30;20372;-77
2022/01/18 13:47:09;;;;;;;36.55;17.15;;;;;;;;;;4737949;30;20104;-77
2022/01/18 13:49:36;;;;;;;30.83;16.45;;;;;;;;;;4733459;30;20049;-77
2022/01/18 13:52:04;;;;;;;38.15;16.52;;;;;;;;;;4737458;30;20051;-78
2022/01/18 13:54:51;;;;;;;29.27;15.15;;;;;;;;;;4733897;30;20055;-78
2022/01/18 13:57:21;;;;;;;33.90;16.50;;;;;;;;;;4725078;30;20045;-77
2022/01/18 13:59:48;;;;;;;29.35;15.63;;;;;;;;;;4740687;30;20044;-77
2022/01/18 14:02:18;;;;;;;26.88;13.88;;;;;;;;;;4736963;30;20060;-77
2022/01/18 14:04:46;;;;;;;32.15;14.88;;;;;;;;;;4734833;30;20126;-77
2022/01/18 14:07:12;;;;;;;24.55;13.43;;;;;;;;;;4735249;30;20063;-78
2022/01/18 14:09:38;;;;;;;28.10;13.48;;;;;;;;;;4735998;30;20368;-77
2022/01/18 14:12:04;;;;;;;33.03;15.07;;;;;;;;;;4734437;30;20056;-77
2022/01/18 14:14:35;;;;;;;28.80;14.55;;;;;;;;;;4743749;30;20048;-77
2022/01/18 14:17:02;;;;;;;36.03;14.80;;;;;;;;;;4738632;30;20085;-77
2022/01/18 14:19:35;;;;;;;31.83;14.55;;;;;;;;;;4741214;30;20052;-78
2022/01/18 14:22:18;;;;;;;31.17;13.52;;;;;;;;;;4731669;30;20105;-77
2022/01/18 14:24:46;;;;;;;36.42;15.30;;;;;;;;;;4732085;30;20052;-77
2022/01/18 14:27:23;;;;;;;37.40;15.68;;;;;;;;;;4733007;30;20056;-77
2022/01/18 14:29:54;;;;;;;33.58;15.50;;;;;;;;;;4740031;30;20071;-77
2022/01/18 14:32:40;;;;;;;33.60;17.25;;;;;;;;;;4736066;30;20044;-77
2022/01/18 14:35:08;;;;;;;34.28;13.68;;;;;;;;;;4731358;30;20172;-77
2022/01/18 14:37:41;;;;;;;;;;;;;;;;;;4739003;30;20048;-77
2022/01/18 14:40:32;;;;;;;34.25;15.02;;;;;;;;;;4730625;30;19941;-77
2022/01/18 14:43:04;;;;;;;33.67;15.70;;;;;;;;;;4730426;30;20071;-77
2022/01/18 14:45:38;;;;;;;31.90;14.88;;;;;;;;;;4733321;30;20517;-78
2022/01/18 14:48:13;;;;;;;32.30;13.88;;;;;;;;;;4736330;30;20078;-78
2022/01/18 14:50:45;;;;;;;37.50;15.80;;;;;;;;;;4730815;30;20064;-77
2022/01/18 14:53:10;;;;;;;33.17;15.00;;;;;;;;;;4732409;30;20048;-77
2022/01/18 14:55:36;;;;;;;38.57;17.97;;;;;;;;;;4743391;30;20500;-77
2022/01/18 14:58:02;;;;;;;51.47;22.27;;;;;;;;;;4739476;30;20049;-77
2022/01/18 15:00:28;;;;;;;62.92;31.58;;;;;;;;;;4730656;30;20063;-77
2022/01/18 15:02:55;;;;;;;56.87;28.37;;;;;;;;;;4739993;30;20056;-77
2022/01/18 15:05:21;;;;;;;60.60;33.60;;;;;;;;;;4740853;30;20138;-78
2022/01/18 15:07:47;;;;;;;60.03;31.37;;;;;;;;;;4739223;30;20250;-77
2022/01/18 15:10:13;;;;;;;58.90;26.10;;;;;;;;;;4741163;30;20414;-77
2022/01/18 15:12:41;;;;;;;47.20;26.10;;;;;;;;;;4738619;30;20055;-77
2022/01/18 15:15:07;;;;;;;64.80;29.92;;;;;;;;;;4730902;30;20048;-77
2022/01/18 15:17:33;;;;;;;69.63;30.77;;;;;;;;;;4737362;30;20051;-78
2022/01/18 15:19:58;;;;;;;66.10;31.97;;;;;;;;;;4741861;30;20040;-77
2022/01/18 15:22:24;;;;;;;56.23;28.20;;;;;;;;;;4737206;30;20059;-78
2022/01/18 15:24:49;;;;;;;53.67;27.73;;;;;;;;;;4740005;30;20079;-77
2022/01/18 15:27:16;;;;;;;50.50;26.03;;;;;;;;;;4735077;30;20103;-78
2022/01/18 15:29:42;;;;;;;48.38;22.80;;;;;;;;;;4742365;30;20128;-78
2022/01/18 15:32:08;;;;;;;60.28;27.95;;;;;;;;;;4730476;30;20122;-77
2022/01/18 15:34:34;;;;;;;49.23;24.57;;;;;;;;;;4735669;30;20486;-78
2022/01/18 15:36:59;;;;;;;49.43;23.90;;;;;;;;;;4738129;30;20048;-77
2022/01/18 15:39:25;;;;;;;55.00;23.47;;;;;;;;;;4734889;30;20111;-77
2022/01/18 15:41:51;;;;;;;45.13;24.70;;;;;;;;;;4731516;30;20048;-77
2022/01/18 15:44:17;;;;;;;45.07;23.37;;;;;;;;;;4738257;30;20114;-77
2022/01/18 15:46:42;;;;;;;45.47;22.17;;;;;;;;;;4736052;30;20044;-77
2022/01/18 15:49:08;;;;;;;39.47;22.13;;;;;;;;;;4734942;30;20051;-77
2022/01/18 15:51:34;;;;;;;52.80;24.20;;;;;;;;;;4735086;30;20380;-77
2022/01/18 15:54:00;;;;;;;50.88;23.23;;;;;;;;;;4734064;30;20037;-77
2022/01/18 15:56:26;;;;;;;47.03;22.10;;;;;;;;;;4732511;30;20102;-77
2022/01/18 15:58:52;;;;;;;41.73;20.33;;;;;;;;;;4729769;30;20078;-77
2022/01/18 16:01:18;;;;;;;46.40;23.35;;;;;;;;;;4732097;30;20028;-77
2022/01/18 16:03:44;;;;;;;56.93;26.40;;;;;;;;;;4729621;30;20391;-77